Time;durP1;ratioP1;P1;durP2;ratioP2;P2;SDS_P1;SDS_P2;PMS_P1;PMS_P2;Temp;Humidity;BMP_temperature;BMP_pressure;BME280_temperature;BME280_humidity;BME280_pressure;Samples;Min_cycle;Max_cycle;Signal;HPM_P1;HPM_P2
2021/07/07 00:00:55;;;;;;;10.40;3.42;;;;;;;15.55;65.00;99230.81;4968869;28;20042;-75
2021/07/07 00:03:20;;;;;;;9.57;4.07;;;;;;;15.56;65.41;99232.53;4969894;28;20472;-74
2021/07/07 00:05:46;;;;;;;8.95;2.63;;;;;;;15.54;65.26;99226.50;4969485;28;20065;-74
2021/07/07 00:08:11;;;;;;;5.65;2.70;;;;;;;15.57;65.21;99228.06;4969980;28;20039;-75
2021/07/07 00:10:37;;;;;;;8.43;3.05;;;;;;;15.59;65.61;99231.44;4953268;28;20064;-74
2021/07/07 00:13:03;;;;;;;5.80;2.60;;;;;;;15.61;65.33;99233.03;4953483;28;20050;-75
2021/07/07 00:15:31;;;;;;;4.53;2.30;;;;;;;15.63;64.92;99224.94;4971384;28;20093;-74
2021/07/07 00:17:58;;;;;;;7.75;2.70;;;;;;;15.65;65.31;99228.28;4955963;28;20039;-76
2021/07/07 00:20:24;;;;;;;10.77;3.53;;;;;;;15.61;65.16;99230.38;4973728;28;20428;-75
2021/07/07 00:22:49;;;;;;;9.95;2.53;;;;;;;15.63;65.05;99230.25;4973563;28;20125;-75
2021/07/07 00:25:15;;;;;;;8.02;2.95;;;;;;;15.65;65.06;99237.13;4973802;28;20034;-75
2021/07/07 00:27:40;;;;;;;11.25;2.80;;;;;;;15.68;64.78;99234.22;4974025;28;20035;-75
2021/07/07 00:30:08;;;;;;;7.32;2.78;;;;;;;15.70;64.84;99230.63;4973617;28;20030;-74
2021/07/07 00:32:33;;;;;;;8.32;3.05;;;;;;;15.70;64.96;99228.81;4973315;28;20035;-76
2021/07/07 00:34:59;;;;;;;8.75;3.08;;;;;;;15.68;64.98;99228.06;4956438;28;20121;-75
2021/07/07 00:37:25;;;;;;;6.88;2.50;;;;;;;15.68;64.78;99226.25;4973900;28;20039;-76
2021/07/07 00:39:51;;;;;;;6.22;2.40;;;;;;;15.65;65.07;99221.19;4955890;28;20122;-76
2021/07/07 00:42:17;;;;;;;8.10;3.17;;;;;;;15.64;64.75;99219.47;4973616;28;20034;-76
2021/07/07 00:44:42;;;;;;;11.15;3.83;;;;;;;15.63;65.01;99220.47;4974591;28;20034;-73
2021/07/07 00:47:08;;;;;;;9.88;3.08;;;;;;;15.61;65.04;99214.41;4974298;28;20101;-75
2021/07/07 00:49:34;;;;;;;8.68;2.47;;;;;;;15.60;65.12;99223.38;4973603;28;20174;-75
2021/07/07 00:52:02;;;;;;;12.07;2.85;;;;;;;15.61;65.20;99221.56;4974064;28;20031;-74
2021/07/07 00:54:31;;;;;;;11.65;2.80;;;;;;;15.62;65.05;99213.44;4974240;28;20057;-75
2021/07/07 00:56:58;;;;;;;10.55;3.08;;;;;;;15.62;65.19;99221.41;4973289;28;20039;-75
2021/07/07 00:59:25;;;;;;;14.50;2.83;;;;;;;15.64;65.19;99226.63;4973082;28;20046;-75
2021/07/07 01:01:53;;;;;;;10.15;3.67;;;;;;;15.68;64.82;99217.44;4948962;28;20130;-74
2021/07/07 01:04:19;;;;;;;8.18;2.88;;;;;;;15.70;65.04;99223.50;4972999;28;20026;-74
2021/07/07 01:06:44;;;;;;;7.85;2.58;;;;;;;15.71;65.16;99221.69;4973119;28;20176;-74
2021/07/07 01:09:09;;;;;;;10.48;3.85;;;;;;;15.71;64.68;99227.84;4972823;28;20090;-75
2021/07/07 01:11:35;;;;;;;6.70;2.42;;;;;;;15.71;65.15;99219.88;4972951;28;20039;-74
2021/07/07 01:14:00;;;;;;;6.63;2.72;;;;;;;15.71;65.01;99222.53;4973212;28;20042;-75
2021/07/07 01:16:29;;;;;;;10.30;2.75;;;;;;;15.69;65.25;99237.72;4974113;28;20416;-74
2021/07/07 01:18:54;;;;;;;7.60;3.53;;;;;;;15.68;65.49;99228.06;4991838;28;20042;-74
2021/07/07 01:21:21;;;;;;;12.20;3.15;;;;;;;15.68;65.14;99230.72;4975571;28;20121;-75
2021/07/07 01:23:47;;;;;;;12.10;4.53;;;;;;;15.68;65.33;99238.69;4994535;28;20050;-74
2021/07/07 01:26:12;;;;;;;9.95;3.53;;;;;;;15.68;65.07;99234.22;4993216;28;20138;-74
2021/07/07 01:28:38;;;;;;;8.63;3.05;;;;;;;15.70;65.44;99241.25;4993421;28;20038;-74
2021/07/07 01:31:04;;;;;;;5.35;2.17;;;;;;;15.74;65.04;99232.06;4993470;28;20042;-74
2021/07/07 01:33:30;;;;;;;9.32;2.55;;;;;;;15.72;65.10;99229.53;4994956;28;20049;-75
2021/07/07 01:35:56;;;;;;;8.55;3.20;;;;;;;15.73;65.35;99228.59;4995828;28;20385;-75
2021/07/07 01:38:21;;;;;;;4.90;2.38;;;;;;;15.76;65.33;99232.81;4992581;28;20101;-75
2021/07/07 01:40:47;;;;;;;13.05;3.03;;;;;;;15.76;64.75;99233.66;4991502;28;20504;-75
2021/07/07 01:43:12;;;;;;;4.75;2.83;;;;;;;15.78;64.98;99231.72;4991618;28;20041;-75
2021/07/07 01:45:37;;;;;;;6.85;3.38;;;;;;;15.78;65.02;99226.41;4991455;28;20038;-74
2021/07/07 01:48:03;;;;;;;9.80;2.97;;;;;;;15.78;64.85;99222.91;4990852;28;20046;-74
2021/07/07 01:50:30;;;;;;;5.93;3.13;;;;;;;15.76;64.89;99225.66;4954270;28;20121;-74
2021/07/07 01:52:56;;;;;;;9.80;3.30;;;;;;;15.72;65.14;99224.22;4990875;28;20061;-74
2021/07/07 01:55:22;;;;;;;10.10;3.78;;;;;;;15.70;65.38;99225.31;4991814;28;20034;-75
2021/07/07 01:57:48;;;;;;;7.43;3.03;;;;;;;15.68;65.13;99223.59;4991034;28;20030;-74
2021/07/07 02:00:22;;;;;;;7.47;3.05;;;;;;;15.68;65.34;99228.06;4991120;28;20103;-74
2021/07/07 02:02:49;;;;;;;8.05;3.10;;;;;;;15.64;65.63;99226.63;4990770;28;20097;-74
2021/07/07 02:05:15;;;;;;;8.32;2.90;;;;;;;15.60;65.63;99223.38;4991098;28;20056;-74
2021/07/07 02:07:41;;;;;;;6.93;3.28;;;;;;;15.61;65.63;99229.53;4989202;28;20520;-74
2021/07/07 02:10:10;;;;;;;12.95;2.90;;;;;;;15.61;65.54;99226.88;4990863;28;20068;-75
2021/07/07 02:12:35;;;;;;;6.60;2.90;;;;;;;15.62;65.62;99228.53;4990250;28;20754;-74
2021/07/07 02:15:05;;;;;;;7.32;3.63;;;;;;;15.62;65.72;99226.72;4990946;28;20036;-74
2021/07/07 02:17:30;;;;;;;5.22;2.78;;;;;;;15.63;65.68;99227.59;4990361;28;20037;-73
2021/07/07 02:19:56;;;;;;;7.50;3.85;;;;;;;15.63;65.56;99215.16;4973442;28;20030;-74
2021/07/07 02:22:21;;;;;;;8.77;3.60;;;;;;;15.63;65.60;99220.47;4958171;28;20027;-73
2021/07/07 02:24:47;;;;;;;9.30;2.70;;;;;;;15.62;65.53;99217.91;4973065;28;20034;-73
2021/07/07 02:27:12;;;;;;;8.38;2.72;;;;;;;15.61;65.77;99219.72;4990339;28;20062;-73
2021/07/07 02:29:38;;;;;;;9.25;3.03;;;;;;;15.59;66.03;99213.69;4990355;28;20545;-74
2021/07/07 02:32:03;;;;;;;7.40;2.85;;;;;;;15.58;66.06;99219.97;4990122;28;20465;-74
2021/07/07 02:34:28;;;;;;;8.93;3.15;;;;;;;15.57;65.85;99226.25;4990454;28;20526;-74
2021/07/07 02:36:54;;;;;;;7.60;2.97;;;;;;;15.57;66.04;99220.09;4990148;28;20077;-74
2021/07/07 02:39:19;;;;;;;12.43;2.58;;;;;;;15.58;65.89;99221.78;4973266;28;20394;-74
2021/07/07 02:41:45;;;;;;;9.10;4.70;;;;;;;15.60;66.08;99220.72;4990459;28;20533;-74
2021/07/07 02:44:10;;;;;;;10.95;3.60;;;;;;;15.60;65.99;99220.72;4990400;28;20494;-74
2021/07/07 02:46:36;;;;;;;10.95;4.47;;;;;;;15.61;65.77;99233.03;4990205;28;20503;-75
2021/07/07 02:49:01;;;;;;;19.20;8.43;;;;;;;15.59;66.16;99226.97;4990350;28;20091;-74
2021/07/07 02:51:26;;;;;;;13.70;8.68;;;;;;;15.58;66.04;99230.63;4990184;28;20467;-74
2021/07/07 02:53:52;;;;;;;13.65;9.95;;;;;;;15.58;66.17;99243.91;4990166;28;20034;-74
2021/07/07 02:56:17;;;;;;;16.45;10.70;;;;;;;15.55;66.03;99238.81;4989771;28;20030;-73
2021/07/07 02:58:42;;;;;;;15.35;6.60;;;;;;;15.55;66.23;99227.34;4972480;28;20092;-73
2021/07/07 03:01:08;;;;;;;11.60;4.90;;;;;;;15.56;66.19;99234.34;4990344;28;20050;-74
2021/07/07 03:03:33;;;;;;;10.18;5.10;;;;;;;15.54;66.20;99231.81;4981050;28;20030;-72
2021/07/07 03:06:01;;;;;;;10.15;3.45;;;;;;;15.55;65.97;99232.66;4969075;28;20045;-76
2021/07/07 03:08:29;;;;;;;9.23;4.00;;;;;;;15.55;66.35;99237.97;4973575;28;20038;-75
2021/07/07 03:10:56;;;;;;;9.63;4.15;;;;;;;15.55;66.21;99232.66;4990659;28;20046;-74
2021/07/07 03:13:23;;;;;;;10.98;3.65;;;;;;;15.55;65.79;99230.00;4991242;28;20423;-76
2021/07/07 03:15:51;;;;;;;10.52;3.92;;;;;;;15.52;66.59;99231.06;4973884;28;20034;-75
2021/07/07 03:18:20;;;;;;;9.55;3.30;;;;;;;15.52;66.38;99233.72;4963806;28;20046;-76
2021/07/07 03:20:47;;;;;;;8.05;3.72;;;;;;;15.54;66.35;99228.31;4972617;28;20049;-75
2021/07/07 03:23:15;;;;;;;7.55;2.50;;;;;;;15.54;66.32;99237.13;4971818;28;20125;-74
2021/07/07 03:25:41;;;;;;;10.20;3.50;;;;;;;15.55;66.32;99241.47;4986176;28;20487;-74
2021/07/07 03:28:06;;;;;;;8.50;3.28;;;;;;;15.57;66.29;99244.00;4989329;28;20054;-74
2021/07/07 03:30:32;;;;;;;15.10;3.08;;;;;;;15.58;66.17;99248.34;4989654;28;20061;-74
2021/07/07 03:32:59;;;;;;;7.15;3.15;;;;;;;15.57;66.13;99250.16;4972878;28;20098;-75
2021/07/07 03:35:25;;;;;;;6.43;2.67;;;;;;;15.60;66.06;99257.03;4990088;28;20566;-74
2021/07/07 03:37:52;;;;;;;6.22;2.53;;;;;;;15.61;66.01;99264.06;4989870;28;20057;-74
2021/07/07 03:40:18;;;;;;;6.57;2.75;;;;;;;15.62;65.99;99266.59;4972289;28;20030;-74
2021/07/07 03:42:44;;;;;;;9.35;2.88;;;;;;;15.62;66.08;99268.41;4968615;28;20042;-74
2021/07/07 03:45:11;;;;;;;7.30;2.90;;;;;;;15.59;65.88;99272.16;4989590;28;20096;-74
2021/07/07 03:47:37;;;;;;;9.52;2.97;;;;;;;15.61;65.88;99274.69;4989506;28;20113;-74
2021/07/07 03:50:04;;;;;;;5.57;3.20;;;;;;;15.61;65.68;99278.19;4990475;28;20525;-74
2021/07/07 03:52:29;;;;;;;9.68;2.92;;;;;;;15.65;65.90;99281.44;4993417;28;20108;-75
2021/07/07 03:54:55;;;;;;;7.95;2.78;;;;;;;15.66;65.75;99278.66;4993398;28;20498;-75
2021/07/07 03:57:20;;;;;;;8.77;3.17;;;;;;;15.64;65.90;99280.59;4993591;28;20535;-75
2021/07/07 03:59:46;;;;;;;5.35;3.22;;;;;;;15.66;65.87;99283.16;4993219;28;20030;-75
2021/07/07 04:02:12;;;;;;;8.85;2.20;;;;;;;15.68;65.80;99290.03;4993210;28;20130;-75
2021/07/07 04:04:37;;;;;;;7.45;2.92;;;;;;;15.71;65.86;99290.81;4993098;28;20191;-75
2021/07/07 04:07:04;;;;;;;6.47;3.28;;;;;;;15.74;65.58;99295.88;4993229;28;20049;-74
2021/07/07 04:09:29;;;;;;;9.35;2.97;;;;;;;15.77;65.75;99301.78;4992879;28;20065;-73
2021/07/07 04:11:59;;;;;;;5.80;2.63;;;;;;;15.75;65.58;99300.19;4992760;28;20057;-73
2021/07/07 04:14:25;;;;;;;7.57;2.53;;;;;;;15.75;65.78;99305.50;4993146;28;20077;-73
2021/07/07 04:16:52;;;;;;;8.07;2.97;;;;;;;15.75;65.66;99303.72;4993225;28;20034;-74
2021/07/07 04:19:18;;;;;;;8.98;3.28;;;;;;;15.75;65.83;99313.50;4992773;28;20050;-74
2021/07/07 04:21:44;;;;;;;12.10;2.85;;;;;;;15.74;66.00;99315.31;4992607;28;20625;-74
2021/07/07 04:24:10;;;;;;;5.05;2.90;;;;;;;15.75;66.18;99318.81;4992306;28;20041;-75
2021/07/07 04:26:35;;;;;;;8.35;2.65;;;;;;;15.74;66.19;99317.13;4997907;28;20038;-74
2021/07/07 04:29:00;;;;;;;8.90;3.67;;;;;;;15.79;66.06;99315.78;4993222;28;20410;-74
2021/07/07 04:31:26;;;;;;;6.97;2.47;;;;;;;15.83;66.09;99317.25;4976234;28;20108;-74
2021/07/07 04:33:51;;;;;;;12.60;3.28;;;;;;;15.91;65.76;99321.13;4994476;28;20044;-75
2021/07/07 04:36:16;;;;;;;12.25;3.58;;;;;;;15.92;65.97;99326.28;4993832;28;20045;-75
2021/07/07 04:38:42;;;;;;;8.27;2.83;;;;;;;15.96;65.65;99327.75;4992897;28;20030;-74
2021/07/07 04:41:07;;;;;;;6.65;2.28;;;;;;;15.96;66.02;99333.06;4997742;28;20053;-74
2021/07/07 04:43:33;;;;;;;7.75;3.67;;;;;;;15.99;65.94;99327.50;4999607;28;20061;-74
2021/07/07 04:45:58;;;;;;;7.32;2.60;;;;;;;16.03;66.00;99333.44;5000129;28;20510;-75
2021/07/07 04:48:23;;;;;;;7.45;2.92;;;;;;;16.08;65.51;99329.44;4996707;28;20455;-74
2021/07/07 04:50:49;;;;;;;10.10;2.92;;;;;;;16.09;65.63;99320.50;4978769;28;20106;-74
2021/07/07 04:53:14;;;;;;;7.53;3.15;;;;;;;16.11;65.38;99325.69;4995570;28;20049;-74
2021/07/07 04:55:39;;;;;;;12.70;3.55;;;;;;;16.16;65.64;99333.31;4977289;28;20034;-75
2021/07/07 04:58:07;;;;;;;5.43;3.53;;;;;;;16.20;65.76;99329.44;4976580;28;20506;-73
2021/07/07 05:00:33;;;;;;;7.90;3.65;;;;;;;16.26;65.46;99332.44;4992781;28;20030;-73
2021/07/07 05:02:58;;;;;;;9.65;3.33;;;;;;;16.31;65.10;99332.06;4990962;28;20038;-74
2021/07/07 05:05:24;;;;;;;9.90;2.60;;;;;;;16.37;65.22;99333.44;4975017;28;20080;-74
2021/07/07 05:07:50;;;;;;;5.50;2.58;;;;;;;16.45;64.75;99326.50;4992710;28;20054;-75
2021/07/07 05:10:16;;;;;;;4.63;2.70;;;;;;;16.58;64.58;99330.81;4993059;28;20054;-74
2021/07/07 05:12:42;;;;;;;10.32;3.05;;;;;;;16.74;64.26;99333.94;4994437;28;20031;-74
2021/07/07 05:15:08;;;;;;;5.82;2.42;;;;;;;16.86;63.57;99343.59;4993209;28;20049;-74
2021/07/07 05:17:34;;;;;;;7.40;3.03;;;;;;;16.99;62.84;99335.44;4992845;28;20042;-74
2021/07/07 05:20:00;;;;;;;12.27;3.53;;;;;;;17.12;62.78;99344.09;4992619;28;20077;-75
2021/07/07 05:22:27;;;;;;;7.93;3.88;;;;;;;17.22;62.44;99348.66;4974121;28;20113;-76
2021/07/07 05:24:52;;;;;;;8.90;3.78;;;;;;;17.28;61.96;99350.81;4992458;28;20038;-75
2021/07/07 05:27:17;;;;;;;8.27;2.50;;;;;;;17.38;62.02;99347.25;4992214;28;20026;-75
2021/07/07 05:29:43;;;;;;;7.55;2.60;;;;;;;17.55;61.48;99361.81;4988720;28;22750;-75
2021/07/07 05:32:09;;;;;;;12.10;3.33;;;;;;;17.68;61.37;99358.09;4991749;28;20410;-75
2021/07/07 05:34:36;;;;;;;9.70;2.90;;;;;;;17.77;61.16;99362.59;4991826;28;20041;-74
2021/07/07 05:37:01;;;;;;;10.50;3.08;;;;;;;17.89;60.52;99366.91;4991275;28;20038;-75
2021/07/07 05:39:27;;;;;;;7.78;3.15;;;;;;;18.03;60.50;99357.72;4991870;28;20088;-75
2021/07/07 05:41:53;;;;;;;6.03;2.70;;;;;;;18.25;60.05;99362.03;4988615;28;20117;-75
2021/07/07 05:44:18;;;;;;;9.63;3.03;;;;;;;18.59;59.18;99354.53;4990240;28;20034;-75
2021/07/07 05:46:44;;;;;;;5.57;2.45;;;;;;;19.04;57.90;99359.41;4991406;28;20038;-73
2021/07/07 05:49:09;;;;;;;8.57;2.63;;;;;;;19.27;57.36;99370.69;4991070;28;20073;-73
2021/07/07 05:51:34;;;;;;;9.15;3.92;;;;;;;19.23;57.04;99363.91;4991613;28;20084;-74
2021/07/07 05:54:00;;;;;;;3.92;2.20;;;;;;;19.36;57.16;99362.78;4974030;28;20047;-74
2021/07/07 05:56:25;;;;;;;7.25;2.30;;;;;;;19.53;55.98;99362.06;4974127;28;20037;-74
2021/07/07 05:58:50;;;;;;;6.85;2.47;;;;;;;19.45;56.07;99368.13;4974507;28;20034;-75
2021/07/07 06:01:16;;;;;;;6.53;2.95;;;;;;;19.52;56.08;99371.91;4991096;28;20117;-73
2021/07/07 06:03:42;;;;;;;10.32;3.58;;;;;;;19.60;55.90;99375.69;4974021;28;20046;-75
2021/07/07 06:06:08;;;;;;;14.82;3.28;;;;;;;19.59;55.82;99371.31;4990996;28;20038;-73
2021/07/07 06:08:33;;;;;;;8.98;2.92;;;;;;;19.53;55.39;99368.25;4991222;28;20038;-74
2021/07/07 06:10:59;;;;;;;13.65;3.15;;;;;;;19.50;55.71;99375.72;4991094;28;20030;-77
2021/07/07 06:13:24;;;;;;;22.88;17.33;;;;;;;19.72;55.35;99374.59;4990616;28;20030;-75
2021/07/07 06:15:49;;;;;;;5.40;2.50;;;;;;;19.64;55.34;99377.94;4991479;28;20088;-75
2021/07/07 06:18:15;;;;;;;10.25;3.42;;;;;;;19.55;55.44;99372.63;4990859;28;20494;-75
2021/07/07 06:20:41;;;;;;;6.93;2.20;;;;;;;19.60;55.40;99373.03;4991251;28;20213;-74
2021/07/07 06:23:06;;;;;;;7.90;3.65;;;;;;;19.66;55.56;99375.13;4991179;28;20046;-75
2021/07/07 06:25:32;;;;;;;16.73;8.35;;;;;;;19.75;55.38;99386.81;4990738;28;20027;-74
2021/07/07 06:28:00;;;;;;;11.13;3.10;;;;;;;19.77;54.78;99385.69;4990810;28;20393;-75
2021/07/07 06:30:26;;;;;;;8.27;3.05;;;;;;;19.81;54.46;99383.56;4990463;28;20062;-75
2021/07/07 06:32:53;;;;;;;8.88;2.58;;;;;;;19.79;54.85;99389.06;4990930;28;20394;-75
2021/07/07 06:35:19;;;;;;;11.35;3.05;;;;;;;19.81;54.83;99395.09;4990834;28;20041;-73
2021/07/07 06:37:45;;;;;;;7.05;2.58;;;;;;;19.88;54.53;99398.88;4990309;28;20042;-74
2021/07/07 06:40:12;;;;;;;8.50;3.08;;;;;;;19.86;54.77;99400.88;4972838;28;20030;-74
2021/07/07 06:42:38;;;;;;;11.90;3.38;;;;;;;19.90;55.01;99398.75;4989205;28;20031;-74
2021/07/07 06:45:05;;;;;;;4.22;2.60;;;;;;;19.97;54.29;99396.34;4990627;28;20076;-74
2021/07/07 06:47:31;;;;;;;7.07;2.58;;;;;;;20.05;54.33;99399.97;4990411;28;20034;-74
2021/07/07 06:49:56;;;;;;;6.88;2.35;;;;;;;20.13;54.85;99404.59;4989879;28;20033;-75
2021/07/07 06:52:22;;;;;;;4.80;2.65;;;;;;;20.25;54.26;99405.25;4990818;28;20030;-75
2021/07/07 06:54:48;;;;;;;7.50;2.60;;;;;;;20.35;53.92;99406.06;4990028;28;20031;-75
2021/07/07 06:57:14;;;;;;;4.47;3.15;;;;;;;20.50;54.04;99411.75;4990359;28;20037;-75
2021/07/07 06:59:39;;;;;;;4.82;2.38;;;;;;;20.41;53.46;99410.00;4990467;28;20397;-76
2021/07/07 07:02:04;;;;;;;6.25;2.80;;;;;;;20.36;53.23;99416.63;4991598;28;20562;-76
2021/07/07 07:04:31;;;;;;;7.47;2.60;;;;;;;20.47;53.33;99414.75;4990916;28;20108;-74
2021/07/07 07:06:57;;;;;;;9.10;2.45;;;;;;;20.53;52.26;99416.84;4990346;28;20027;-74
2021/07/07 07:09:23;;;;;;;8.18;2.70;;;;;;;20.61;51.96;99414.28;4990152;28;20035;-75
2021/07/07 07:11:48;;;;;;;8.38;2.97;;;;;;;20.72;50.51;99413.22;4989933;28;20030;-75
2021/07/07 07:14:14;;;;;;;4.93;2.55;;;;;;;20.72;49.22;99418.59;4990382;28;20069;-75
2021/07/07 07:16:41;;;;;;;9.35;2.85;;;;;;;20.75;49.49;99415.63;4972208;28;20034;-75
2021/07/07 07:19:06;;;;;;;7.78;2.58;;;;;;;20.88;49.51;99418.78;4989830;28;20073;-74
2021/07/07 07:21:32;;;;;;;13.07;2.70;;;;;;;20.96;49.22;99423.38;4990058;28;20057;-74
2021/07/07 07:23:57;;;;;;;8.45;2.75;;;;;;;21.00;48.87;99419.44;4990258;28;20486;-74
2021/07/07 07:26:22;;;;;;;11.00;2.58;;;;;;;21.05;49.03;99425.16;4990146;28;20381;-74
2021/07/07 07:28:48;;;;;;;8.27;2.45;;;;;;;21.26;49.50;99434.75;4990098;28;20038;-75
2021/07/07 07:31:13;;;;;;;7.57;2.90;;;;;;;21.68;48.08;99434.16;4990267;28;20038;-76
2021/07/07 07:33:39;;;;;;;9.00;2.95;;;;;;;22.05;47.40;99429.41;4989952;28;20031;-76
2021/07/07 07:36:05;;;;;;;5.40;2.60;;;;;;;22.33;45.75;99431.94;4990326;28;20494;-76
2021/07/07 07:38:32;;;;;;;9.13;2.92;;;;;;;22.72;44.21;99429.59;4985382;28;20378;-76
2021/07/07 07:40:58;;;;;;;6.40;3.00;;;;;;;23.05;43.32;99434.25;4961069;28;20034;-76
2021/07/07 07:43:24;;;;;;;8.13;3.75;;;;;;;23.41;42.39;99442.91;4971697;28;20027;-75
2021/07/07 07:45:52;;;;;;;4.70;2.65;;;;;;;23.74;41.42;99440.25;4987662;28;20039;-76
2021/07/07 07:48:18;;;;;;;7.28;2.33;;;;;;;23.79;41.71;99433.34;4989785;28;20505;-76
2021/07/07 07:50:44;;;;;;;5.97;3.15;;;;;;;24.01;40.96;99439.03;4972536;28;20054;-75
2021/07/07 07:53:09;;;;;;;7.78;2.60;;;;;;;23.95;40.90;99445.13;4990085;28;20034;-75
2021/07/07 07:55:34;;;;;;;6.38;3.03;;;;;;;23.84;41.01;99440.91;4989655;28;20034;-75
2021/07/07 07:58:00;;;;;;;10.48;2.80;;;;;;;23.79;41.39;99448.66;4989289;28;20045;-74
2021/07/07 08:00:27;;;;;;;6.28;3.15;;;;;;;23.94;40.77;99444.25;4989326;28;20510;-75
2021/07/07 08:02:54;;;;;;;5.90;2.75;;;;;;;23.63;41.20;99440.53;4989915;28;20042;-75
2021/07/07 08:05:20;;;;;;;4.45;2.35;;;;;;;23.62;41.21;99439.72;4972495;28;20042;-74
2021/07/07 08:07:45;;;;;;;10.85;2.78;;;;;;;23.71;41.34;99444.09;4989218;28;20044;-74
2021/07/07 08:10:18;;;;;;;7.93;2.53;;;;;;;23.86;40.39;99446.97;4989595;28;20035;-75
2021/07/07 08:12:45;;;;;;;8.50;2.85;;;;;;;23.89;40.79;99443.94;4989778;28;20045;-75
2021/07/07 08:15:11;;;;;;;6.07;2.38;;;;;;;24.10;40.43;99447.97;4989457;28;20117;-74
2021/07/07 08:17:36;;;;;;;7.40;3.17;;;;;;;24.21;40.08;99443.03;4972006;28;20058;-76
2021/07/07 08:20:05;;;;;;;7.47;2.78;;;;;;;24.09;40.42;99444.41;4989414;28;20086;-76
2021/07/07 08:22:30;;;;;;;16.42;3.03;;;;;;;24.40;39.86;99444.50;4989766;28;20030;-74
2021/07/07 08:24:55;;;;;;;12.32;3.47;;;;;;;24.64;39.37;99449.00;4972312;28;20049;-75
2021/07/07 08:27:21;;;;;;;10.80;2.88;;;;;;;24.69;39.41;99444.97;4989869;28;20498;-75
2021/07/07 08:29:46;;;;;;;7.88;3.38;;;;;;;24.45;39.85;99443.16;4989440;28;20042;-77
2021/07/07 08:32:12;;;;;;;7.70;2.60;;;;;;;23.90;40.80;99447.47;4989340;28;20034;-75
2021/07/07 08:34:37;;;;;;;4.18;2.63;;;;;;;23.55;41.67;99462.91;4989093;28;20035;-76
2021/07/07 08:37:03;;;;;;;7.88;2.67;;;;;;;23.32;41.17;99470.78;4991848;28;20121;-76
2021/07/07 08:39:29;;;;;;;5.57;2.35;;;;;;;22.94;41.49;99463.09;4991679;28;20402;-77
2021/07/07 08:41:55;;;;;;;6.95;1.98;;;;;;;23.02;41.75;99465.00;4993145;28;20487;-76
2021/07/07 08:44:20;;;;;;;8.73;2.30;;;;;;;22.92;41.67;99457.06;4993430;28;20026;-75
2021/07/07 08:46:46;;;;;;;5.20;2.47;;;;;;;22.73;42.28;99458.16;4992794;28;20038;-76
2021/07/07 08:49:11;;;;;;;13.27;3.03;;;;;;;22.53;43.36;99472.84;4992916;28;20130;-75
2021/07/07 08:51:43;;;;;;;8.60;2.78;;;;;;;22.22;43.95;99464.44;4992829;28;20061;-76
2021/07/07 08:54:09;;;;;;;6.78;1.70;;;;;;;22.07;44.81;99480.25;4992834;28;20457;-76
2021/07/07 08:56:39;;;;;;;6.50;2.08;;;;;;;21.80;44.69;99473.16;4992806;28;20122;-76
2021/07/07 08:59:05;;;;;;;8.48;2.45;;;;;;;21.63;45.44;99478.41;4957147;28;20204;-75
2021/07/07 09:01:53;;;;;;;5.88;2.28;;;;;;;21.47;45.49;99477.41;4972626;28;20038;-75
2021/07/07 09:04:33;;;;;;;6.68;2.42;;;;;;;21.46;45.51;99483.75;4959403;28;20110;-76
2021/07/07 09:07:00;;;;;;;8.68;2.67;;;;;;;22.02;42.95;99479.88;4973231;28;20077;-76
2021/07/07 09:09:34;;;;;;;7.80;2.75;;;;;;;22.56;41.59;99477.06;4972490;28;20041;-75
2021/07/07 09:12:00;;;;;;;12.48;2.50;;;;;;;23.62;40.26;99473.84;4973271;28;20094;-76
2021/07/07 09:14:32;;;;;;;8.63;2.17;;;;;;;24.69;38.30;99469.22;4973456;28;20042;-76
2021/07/07 09:17:01;;;;;;;6.22;2.50;;;;;;;25.45;36.16;99468.50;4973007;28;20035;-75
2021/07/07 09:19:26;;;;;;;5.68;2.30;;;;;;;25.78;35.07;99470.94;4973514;28;20047;-75
2021/07/07 09:22:00;;;;;;;8.23;2.40;;;;;;;25.73;35.27;99476.06;4972969;28;20459;-76
2021/07/07 09:24:25;;;;;;;6.30;2.67;;;;;;;25.90;34.43;99474.09;4974727;28;20038;-76
2021/07/07 09:27:17;;;;;;;6.00;2.22;;;;;;;26.72;33.99;99475.97;4972296;28;20031;-76
2021/07/07 09:29:53;;;;;;;4.32;2.20;;;;;;;27.32;32.35;99479.41;4967858;28;20042;-75
2021/07/07 09:32:30;;;;;;;5.85;2.25;;;;;;;27.54;31.07;99483.84;4973868;28;20051;-76
2021/07/07 09:34:58;;;;;;;6.25;2.83;;;;;;;28.20;30.11;99474.63;4956067;28;20187;-75
2021/07/07 09:37:26;;;;;;;5.43;2.75;;;;;;;28.59;29.47;99465.09;4974430;28;20053;-76
2021/07/07 09:39:54;;;;;;;6.68;3.00;;;;;;;28.90;29.04;99478.22;4984353;28;20046;-75
2021/07/07 09:42:27;;;;;;;9.20;2.90;;;;;;;29.26;28.92;99482.53;4993396;28;20053;-75
2021/07/07 09:44:53;;;;;;;6.10;2.90;;;;;;;29.52;28.16;99482.59;4991217;28;20041;-76
2021/07/07 09:47:19;;;;;;;10.13;3.42;;;;;;;29.74;27.66;99483.28;4975878;28;20246;-75
2021/07/07 09:49:47;;;;;;;5.28;3.03;;;;;;;30.12;27.45;99481.84;4958324;28;20123;-75
2021/07/07 09:52:21;;;;;;;5.68;2.75;;;;;;;30.42;26.92;99490.41;4972516;28;20499;-75
2021/07/07 09:54:47;;;;;;;8.63;2.90;;;;;;;30.46;26.67;99491.66;4955391;28;20031;-74
2021/07/07 09:57:14;;;;;;;7.10;2.75;;;;;;;30.35;27.13;99493.16;4976789;28;20039;-75
2021/07/07 09:59:40;;;;;;;6.03;2.40;;;;;;;30.15;27.03;99495.84;4976001;28;20065;-75
2021/07/07 10:02:05;;;;;;;7.15;2.50;;;;;;;30.16;27.21;99497.53;4972587;28;20106;-74
2021/07/07 10:04:34;;;;;;;4.28;1.73;;;;;;;29.82;27.01;99493.13;4972818;28;20089;-76
2021/07/07 10:07:00;;;;;;;7.25;3.22;;;;;;;29.32;28.01;99498.03;4971281;28;20037;-77
2021/07/07 10:09:27;;;;;;;9.05;3.03;;;;;;;29.66;28.11;99493.50;4971216;28;20023;-75
2021/07/07 10:11:56;;;;;;;5.57;2.72;;;;;;;29.23;28.93;99493.81;4970375;28;20043;-74
2021/07/07 10:14:23;;;;;;;6.43;3.40;;;;;;;28.43;29.56;99501.50;4969056;28;20085;-76
2021/07/07 10:16:50;;;;;;;10.73;5.30;;;;;;;28.51;29.64;99495.13;4969254;28;20705;-76
2021/07/07 10:19:17;;;;;;;4.57;2.42;;;;;;;29.22;28.81;99498.41;4969450;28;20046;-74
2021/07/07 10:21:43;;;;;;;8.68;2.40;;;;;;;28.67;29.28;99498.34;4968847;28;20093;-76
2021/07/07 10:24:10;;;;;;;5.53;2.15;;;;;;;28.48;30.42;99504.50;4968895;28;20112;-75
2021/07/07 10:26:36;;;;;;;4.70;2.20;;;;;;;27.33;32.35;99513.59;4968699;28;20039;-75
2021/07/07 10:29:03;;;;;;;4.07;2.10;;;;;;;26.88;33.65;99521.75;4967929;28;20043;-75
2021/07/07 10:31:49;;;;;;;5.78;2.78;;;;;;;26.32;33.87;99511.34;4969988;28;20038;-76
2021/07/07 10:34:16;;;;;;;9.63;2.78;;;;;;;25.88;34.71;99520.19;4968655;28;20043;-75
2021/07/07 10:36:42;;;;;;;10.13;4.70;;;;;;;26.06;35.07;99510.91;4951624;28;20027;-77
2021/07/07 10:39:10;;;;;;;6.78;2.35;;;;;;;26.07;34.90;99520.72;4968652;28;20126;-76
2021/07/07 10:41:42;;;;;;;7.90;2.60;;;;;;;27.56;33.17;99510.72;4968382;28;20538;-75
2021/07/07 10:44:28;;;;;;;4.88;2.50;;;;;;;27.31;32.68;99521.91;4969340;28;20050;-75
2021/07/07 10:47:15;;;;;;;8.35;3.13;;;;;;;27.16;32.99;99521.91;4958075;28;20591;-75
2021/07/07 10:49:51;;;;;;;6.32;2.08;;;;;;;26.62;33.90;99522.22;4969871;28;20054;-76
2021/07/07 10:52:20;;;;;;;8.80;2.47;;;;;;;26.53;34.60;99524.19;4970553;28;20578;-76
2021/07/07 10:55:00;;;;;;;4.57;2.25;;;;;;;26.17;34.13;99529.41;4968707;28;20074;-76
2021/07/07 10:57:35;;;;;;;5.45;2.60;;;;;;;27.01;33.00;99526.50;4968628;28;20035;-76
2021/07/07 11:00:04;;;;;;;5.97;2.08;;;;;;;27.54;31.22;99526.31;4968375;28;20063;-74
2021/07/07 11:02:29;;;;;;;4.32;1.80;;;;;;;27.51;31.45;99522.13;4951709;28;20724;-77
2021/07/07 11:04:58;;;;;;;9.95;2.33;;;;;;;27.05;32.37;99527.81;4968710;28;20041;-75
2021/07/07 11:07:36;;;;;;;5.63;2.42;;;;;;;26.36;32.68;99536.16;4968773;28;20105;-76
2021/07/07 11:10:14;;;;;;;3.42;1.85;;;;;;;25.91;33.59;99532.47;4969831;28;20054;-76
2021/07/07 11:12:41;;;;;;;4.07;2.05;;;;;;;25.42;34.66;99533.63;4968722;28;20091;-75
2021/07/07 11:15:18;;;;;;;3.05;1.80;;;;;;;25.31;35.28;99539.44;4968243;28;20035;-76
2021/07/07 11:17:48;;;;;;;5.10;2.65;;;;;;;25.31;35.37;99538.59;4968236;28;20034;-75
2021/07/07 11:20:29;;;;;;;4.53;1.92;;;;;;;25.16;35.84;99538.47;4968221;28;20038;-75
2021/07/07 11:23:03;;;;;;;6.40;1.65;;;;;;;25.11;36.33;99536.28;4968355;28;20106;-76
2021/07/07 11:25:31;;;;;;;4.85;1.70;;;;;;;24.87;35.71;99547.19;4968984;28;20039;-75
2021/07/07 11:27:57;;;;;;;6.10;1.92;;;;;;;24.67;36.25;99544.03;4968018;28;20392;-75
2021/07/07 11:30:24;;;;;;;7.78;2.03;;;;;;;24.56;36.97;99546.09;4967832;28;20153;-74